Time;durP1;ratioP1;P1;durP2;ratioP2;P2;SDS_P1;SDS_P2;PMS_P1;PMS_P2;Temp;Humidity;BMP_temperature;BMP_pressure;BME280_temperature;BME280_humidity;BME280_pressure;Samples;Min_cycle;Max_cycle;Signal;HPM_P1;HPM_P2
2021/01/04 00:00:15;;;;;;;10.63;6.78;;;;;;;0.61;87.48;97853.16;1684450;83;21591;-67
2021/01/04 00:03:17;;;;;;;10.05;6.95;;;;;;;0.61;87.52;97856.99;1640576;86;21221;-69
2021/01/04 00:06:12;;;;;;;14.40;9.15;;;;;;;0.62;87.35;97849.70;1656395;86;21597;-69
2021/01/04 00:12:05;;;;;;;12.47;9.18;;;;;;;0.60;87.26;97859.17;1639290;87;21219;-68
2021/01/04 00:15:07;;;;;;;10.75;7.08;;;;;;;0.58;87.66;97855.89;1639347;87;21204;-68
2021/01/04 00:21:12;;;;;;;16.62;7.67;;;;;;;0.51;88.81;97848.16;1692139;85;21209;-68
2021/01/04 00:27:05;;;;;;;15.90;5.30;;;;;;;0.54;88.43;97851.85;1728376;83;21570;-69
2021/01/04 00:29:34;;;;;;;6.35;4.83;;;;;;;0.56;88.39;97833.86;1727842;83;21748;-69
2021/01/04 00:32:08;;;;;;;12.78;7.53;;;;;;;0.54;88.83;97829.31;1727397;82;21209;-69
2021/01/04 00:34:45;;;;;;;8.80;4.08;;;;;;;0.35;89.45;97812.41;1727924;82;21300;-68
2021/01/04 00:37:57;;;;;;;11.65;6.25;;;;;;;0.53;89.05;97818.27;1700997;82;21548;-68
2021/01/04 00:41:16;;;;;;;9.15;5.83;;;;;;;0.57;88.69;97806.97;1618151;87;21203;-69
2021/01/04 00:43:52;;;;;;;11.05;7.85;;;;;;;0.59;88.53;97801.75;1633150;87;21169;-68
2021/01/04 00:46:43;;;;;;;13.90;8.20;;;;;;;0.55;88.08;97812.59;1633274;87;21189;-69
2021/01/04 00:49:15;;;;;;;15.80;8.75;;;;;;;0.39;89.07;97802.39;1633395;87;21193;-68
2021/01/04 00:52:07;;;;;;;11.15;6.65;;;;;;;0.39;89.61;97793.45;1641594;87;21240;-69
2021/01/04 00:58:46;;;;;;;16.12;9.78;;;;;;;0.47;89.27;97773.42;1623175;88;21604;-68
2021/01/04 01:04:36;;;;;;;16.85;10.25;;;;;;;0.47;88.83;97762.38;1638419;86;21171;-68
2021/01/04 01:07:18;;;;;;;8.65;4.97;;;;;;;0.50;88.62;97784.39;1688390;85;21669;-69
2021/01/04 01:12:47;;;;;;;6.10;5.05;;;;;;;0.59;87.13;97848.57;1617308;87;21137;-69
2021/01/04 01:15:28;;;;;;;8.25;6.87;;;;;;;0.60;87.51;97841.73;1617405;87;21613;-69
2021/01/04 01:21:09;;;;;;;13.28;7.15;;;;;;;0.58;86.83;97865.28;1759240;81;21144;-68
2021/01/04 01:23:40;;;;;;;11.65;7.95;;;;;;;0.57;86.80;97859.34;1775408;81;21286;-68
2021/01/04 01:26:24;;;;;;;14.43;8.10;;;;;;;0.60;87.15;97855.34;1775622;80;21148;-67
2021/01/04 01:29:35;;;;;;;9.03;6.00;;;;;;;0.60;88.16;97840.45;1775749;80;21180;-67
2021/01/04 01:32:43;;;;;;;12.93;5.78;;;;;;;0.56;88.79;97830.03;1759765;81;21182;-68
2021/01/04 01:35:22;;;;;;;6.42;5.47;;;;;;;0.53;89.47;97831.03;1759430;81;21100;-68
2021/01/04 01:41:21;;;;;;;8.60;5.85;;;;;;;0.56;89.43;97821.92;1699086;84;21600;-68
2021/01/04 01:44:33;;;;;;;6.47;5.33;;;;;;;0.56;89.87;97829.58;1663049;86;21165;-68
2021/01/04 01:47:18;;;;;;;6.58;5.08;;;;;;;0.60;89.93;97830.23;1716704;83;21171;-68
2021/01/04 01:50:10;;;;;;;7.30;3.87;;;;;;;0.64;89.75;97833.82;1728031;83;21152;-68
2021/01/04 01:56:07;;;;;;;6.65;4.60;;;;;;;0.78;89.12;97823.64;1676156;84;21174;-68
2021/01/04 01:59:27;;;;;;;7.75;5.25;;;;;;;0.85;88.91;97813.92;1676662;84;21222;-67
2021/01/04 02:02:36;;;;;;;8.55;5.17;;;;;;;0.87;88.66;97806.52;1677109;84;21219;-69
2021/01/04 02:05:28;;;;;;;6.83;4.70;;;;;;;0.91;88.64;97813.11;1676470;85;21600;-69
2021/01/04 02:08:00;;;;;;;7.55;4.83;;;;;;;0.76;88.61;97765.41;1677098;84;21305;-68
2021/01/04 02:10:52;;;;;;;7.67;5.78;;;;;;;0.98;88.42;97787.17;1676522;84;21206;-68
2021/01/04 02:13:37;;;;;;;9.53;4.78;;;;;;;1.01;88.16;97789.58;1678790;84;21579;-68
2021/01/04 02:16:10;;;;;;;10.25;7.83;;;;;;;1.07;88.07;97800.72;1678990;84;21177;-68
2021/01/04 02:22:12;;;;;;;7.30;4.80;;;;;;;0.90;87.30;97787.16;1691184;84;21897;-69
2021/01/04 02:24:40;;;;;;;11.85;5.85;;;;;;;0.83;87.68;97784.59;1597650;88;21358;-69
2021/01/04 02:27:23;;;;;;;12.40;7.10;;;;;;;0.81;88.05;97794.09;1597998;89;21196;-67
2021/01/04 02:29:51;;;;;;;20.20;8.73;;;;;;;0.84;88.00;97816.92;1597758;89;21208;-67
2021/01/04 02:32:20;;;;;;;13.78;6.25;;;;;;;0.81;87.90;97819.66;1597553;89;21195;-67
2021/01/04 02:35:10;;;;;;;14.60;7.12;;;;;;;0.81;87.99;97809.44;1597697;88;21221;-67
2021/01/04 02:37:39;;;;;;;12.37;7.33;;;;;;;0.86;88.06;97809.15;1644431;86;21208;-70
2021/01/04 02:40:12;;;;;;;14.65;8.60;;;;;;;0.93;88.02;97811.75;1613132;89;21605;-67
2021/01/04 02:42:44;;;;;;;8.63;5.28;;;;;;;0.96;87.89;97807.73;1610675;89;21397;-67
2021/01/04 02:45:28;;;;;;;12.33;7.45;;;;;;;1.00;87.82;97796.88;1613178;89;21209;-68
2021/01/04 02:48:38;;;;;;;10.08;7.28;;;;;;;1.04;87.80;97781.73;1823419;77;22767;-69
2021/01/04 02:51:21;;;;;;;12.23;7.53;;;;;;;0.94;87.72;97789.91;1760333;81;21178;-67
2021/01/04 02:57:10;;;;;;;8.88;7.15;;;;;;;0.88;87.90;97784.34;1769808;81;21293;-67
2021/01/04 02:59:52;;;;;;;11.80;7.17;;;;;;;0.87;87.96;97782.23;1718768;82;21205;-69
2021/01/04 03:02:28;;;;;;;10.32;6.83;;;;;;;0.87;87.92;97783.97;1719327;82;21146;-67
2021/01/04 03:04:58;;;;;;;8.88;6.95;;;;;;;0.86;87.86;97787.42;1719771;82;21174;-68
2021/01/04 03:07:32;;;;;;;9.80;5.87;;;;;;;0.86;88.20;97793.81;1719687;82;21193;-68
2021/01/04 03:10:10;;;;;;;16.02;7.42;;;;;;;0.88;88.11;97792.01;1720095;82;21181;-67
2021/01/04 03:12:38;;;;;;;8.50;5.42;;;;;;;0.86;88.16;97789.53;1698507;82;21221;-67
2021/01/04 03:15:53;;;;;;;11.78;6.45;;;;;;;0.88;88.04;97789.00;1729544;82;21190;-67
2021/01/04 03:18:53;;;;;;;10.08;7.58;;;;;;;0.88;88.29;97785.62;1729382;82;21131;-69
2021/01/04 03:21:27;;;;;;;11.43;6.37;;;;;;;0.79;88.05;97788.23;1721109;83;21720;-69
2021/01/04 03:23:57;;;;;;;6.90;5.17;;;;;;;0.81;88.04;97780.48;1695060;84;21146;-69
2021/01/04 03:26:30;;;;;;;12.07;6.35;;;;;;;0.84;88.08;97781.59;1706351;84;21235;-66
2021/01/04 03:28:58;;;;;;;9.30;5.80;;;;;;;0.82;88.15;97787.23;1738187;82;21157;-62
2021/01/04 03:31:27;;;;;;;8.80;6.30;;;;;;;0.83;87.82;97788.88;1724122;83;21180;-63
2021/01/04 03:33:55;;;;;;;12.35;7.30;;;;;;;0.86;87.83;97788.70;1738531;82;21174;-63
2021/01/04 03:36:23;;;;;;;9.20;6.90;;;;;;;0.90;87.66;97791.45;1723905;83;21159;-65
2021/01/04 03:38:52;;;;;;;12.07;8.20;;;;;;;0.92;87.50;97787.91;1738238;82;21169;-69
2021/01/04 03:41:21;;;;;;;11.70;6.00;;;;;;;0.94;87.47;97785.25;1724232;83;21144;-69
2021/01/04 03:43:49;;;;;;;11.73;7.55;;;;;;;0.96;87.44;97788.56;1737954;82;21185;-67
2021/01/04 03:46:17;;;;;;;10.53;5.50;;;;;;;0.94;87.33;97783.98;1724051;83;21195;-68
2021/01/04 03:48:45;;;;;;;9.75;6.03;;;;;;;0.90;87.68;97787.16;1738013;82;21182;-67
2021/01/04 03:51:14;;;;;;;12.18;6.75;;;;;;;0.88;87.62;97783.06;1724073;83;21565;-67
2021/01/04 03:53:43;;;;;;;13.22;7.70;;;;;;;0.83;88.44;97773.09;1738353;82;21157;-67
2021/01/04 03:56:16;;;;;;;10.20;5.72;;;;;;;0.80;88.91;97771.17;1724142;83;21167;-69
2021/01/04 03:58:45;;;;;;;8.13;5.40;;;;;;;0.84;88.48;97764.52;1737583;82;21170;-65
2021/01/04 04:01:13;;;;;;;11.03;6.70;;;;;;;0.85;88.97;97767.91;1723598;83;21167;-64
2021/01/04 04:03:41;;;;;;;10.88;7.92;;;;;;;0.83;89.31;97754.38;1737481;82;21190;-64
2021/01/04 04:06:14;;;;;;;11.40;6.25;;;;;;;0.86;89.01;97747.34;1694838;85;21201;-64
2021/01/04 04:08:42;;;;;;;10.00;6.17;;;;;;;0.90;88.97;97742.42;1737480;82;21677;-64
2021/01/04 04:11:14;;;;;;;7.05;5.12;;;;;;;0.92;88.79;97735.51;1737496;82;21154;-64
2021/01/04 04:13:42;;;;;;;7.62;5.00;;;;;;;0.96;88.52;97737.42;1737372;82;21157;-65
2021/01/04 04:16:10;;;;;;;11.57;5.67;;;;;;;1.02;88.22;97743.45;1737486;82;21185;-65
2021/01/04 04:18:38;;;;;;;10.03;6.72;;;;;;;1.05;88.14;97749.66;1737602;82;21154;-63
2021/01/04 04:21:11;;;;;;;13.35;5.95;;;;;;;1.11;88.01;97747.21;1728264;82;21178;-65
2021/01/04 04:23:40;;;;;;;11.50;7.20;;;;;;;1.17;87.97;97749.40;1727691;83;21566;-65
2021/01/04 04:26:22;;;;;;;9.90;5.65;;;;;;;1.21;87.80;97751.69;1755770;82;21165;-65
2021/01/04 04:28:52;;;;;;;9.88;6.30;;;;;;;1.27;87.80;97753.91;1755607;82;21172;-63
2021/01/04 04:31:21;;;;;;;9.30;5.40;;;;;;;1.35;87.66;97758.56;1755817;81;21125;-64
2021/01/04 04:33:53;;;;;;;8.78;5.87;;;;;;;1.40;87.58;97745.84;1755656;81;21664;-63
2021/01/04 04:36:27;;;;;;;8.68;6.05;;;;;;;1.49;87.49;97744.94;1755602;81;21196;-69
2021/01/04 04:38:55;;;;;;;8.80;5.67;;;;;;;1.57;87.32;97737.17;1755523;81;21221;-70
2021/01/04 04:41:28;;;;;;;12.85;7.58;;;;;;;1.65;87.00;97743.92;1755473;82;21164;-69
2021/01/04 04:44:23;;;;;;;9.78;5.90;;;;;;;1.68;86.58;97748.03;1755692;82;21232;-66
2021/01/04 04:47:33;;;;;;;9.38;7.65;;;;;;;1.70;86.47;97756.45;1755504;81;21130;-69
2021/01/04 04:50:46;;;;;;;22.58;9.68;;;;;;;1.66;85.99;97753.71;1755710;81;21549;-68
2021/01/04 04:53:19;;;;;;;13.58;8.25;;;;;;;1.58;85.90;97761.03;1755803;82;21152;-68
2021/01/04 04:56:10;;;;;;;14.93;8.65;;;;;;;1.53;86.18;97756.18;1755800;81;21184;-68
2021/01/04 04:58:55;;;;;;;14.07;7.30;;;;;;;1.52;86.28;97757.57;1755560;81;21161;-68
2021/01/04 05:01:44;;;;;;;16.17;7.28;;;;;;;1.53;86.33;97761.75;1755482;81;21165;-67
2021/01/04 05:04:55;;;;;;;11.48;6.55;;;;;;;1.48;86.25;97753.06;1755656;81;21165;-69
2021/01/04 05:07:54;;;;;;;13.83;5.92;;;;;;;1.49;86.27;97750.05;1603827;89;21194;-69
2021/01/04 05:10:57;;;;;;;12.28;7.62;;;;;;;1.46;86.20;97745.95;1823492;77;23086;-69
2021/01/04 05:13:31;;;;;;;13.88;8.18;;;;;;;1.34;86.21;97746.23;1627345;88;21179;-69
2021/01/04 05:16:07;;;;;;;15.95;8.53;;;;;;;1.31;86.46;97746.87;1627860;87;21301;-68
2021/01/04 05:19:04;;;;;;;13.93;8.75;;;;;;;1.28;86.80;97747.05;1627668;87;21162;-64
2021/01/04 05:21:52;;;;;;;;;;;;;;;1.24;87.17;97760.94;1630050;88;21199;-64
2021/01/04 05:24:44;;;;;;;12.75;7.85;;;;;;;1.19;87.25;97762.94;1606378;88;20240;-63
2021/01/04 05:27:48;;;;;;;13.78;8.38;;;;;;;1.24;87.31;97759.20;1823570;77;23052;-65
2021/01/04 05:30:53;;;;;;;11.85;9.28;;;;;;;1.15;88.23;97757.63;1826508;78;21372;-64
2021/01/04 05:34:08;;;;;;;12.20;7.37;;;;;;;1.15;88.57;97755.90;1827675;78;21274;-65
2021/01/04 05:37:22;;;;;;;12.25;7.28;;;;;;;1.16;89.12;97754.17;1762937;81;21115;-65
2021/01/04 05:40:35;;;;;;;16.40;8.45;;;;;;;1.14;89.44;97755.52;1669748;84;21275;-64
2021/01/04 05:43:17;;;;;;;10.03;6.55;;;;;;;1.21;88.74;97749.12;1655573;85;21194;-65
2021/01/04 05:51:54;;;;;;;10.78;6.97;;;;;;;1.33;88.07;97738.17;1684239;85;21780;-65
2021/01/04 05:54:34;;;;;;;13.10;9.78;;;;;;;1.37;87.85;97724.30;1693038;85;22016;-65
2021/01/04 05:57:32;;;;;;;13.18;8.70;;;;;;;1.39;87.72;97714.80;1686093;85;21189;-65
2021/01/04 05:59:59;;;;;;;;;;;;;;;1.41;87.62;97713.41;1625084;88;21195;-65
2021/01/04 06:02:36;;;;;;;22.80;11.50;;;;;;;1.28;88.82;97726.59;1630142;87;20157;-63
2021/01/04 06:07:54;;;;;;;18.25;12.15;;;;;;;1.28;88.92;97710.79;1695331;84;21695;-65
2021/01/04 06:10:33;;;;;;;19.60;10.72;;;;;;;1.30;88.96;97719.18;1695362;85;21212;-65
2021/01/04 06:13:04;;;;;;;14.90;10.40;;;;;;;1.25;89.70;97715.23;1693973;85;21180;-64
2021/01/04 06:15:37;;;;;;;16.67;11.08;;;;;;;1.30;89.40;97719.18;1695083;84;21175;-68
2021/01/04 06:18:14;;;;;;;14.28;9.70;;;;;;;1.38;89.07;97723.39;1695283;85;21148;-64
2021/01/04 06:20:47;;;;;;;20.05;10.72;;;;;;;1.46;88.85;97728.05;1651357;85;21185;-65
2021/01/04 06:23:40;;;;;;;17.20;8.93;;;;;;;1.53;88.66;97731.87;1695112;84;21647;-65
2021/01/04 06:26:21;;;;;;;13.98;8.88;;;;;;;1.65;88.70;97732.86;1739599;81;21161;-66
2021/01/04 06:29:03;;;;;;;16.70;10.18;;;;;;;1.76;88.49;97720.23;1739892;81;21142;-64
2021/01/04 06:31:42;;;;;;;16.12;10.00;;;;;;;1.87;88.13;97720.38;1739552;82;21149;-66
2021/01/04 06:34:43;;;;;;;18.40;10.20;;;;;;;1.93;87.83;97726.42;1739774;81;21161;-64
2021/01/04 06:37:16;;;;;;;14.43;9.28;;;;;;;2.02;87.50;97736.11;1671034;85;21216;-65
2021/01/04 06:40:12;;;;;;;16.67;10.88;;;;;;;2.08;87.32;97728.02;1670270;86;22874;-65
2021/01/04 06:42:43;;;;;;;23.98;11.80;;;;;;;2.16;87.15;97738.62;1687101;84;21329;-65
2021/01/04 06:45:22;;;;;;;16.73;10.53;;;;;;;2.24;86.88;97736.85;1729121;82;21379;-66
2021/01/04 06:48:18;;;;;;;15.80;10.53;;;;;;;2.32;86.61;97734.17;1687115;84;21160;-65
2021/01/04 06:54:02;;;;;;;17.35;11.80;;;;;;;2.44;85.90;97734.30;1682223;84;21595;-66
2021/01/04 06:56:53;;;;;;;26.97;13.78;;;;;;;2.51;85.80;97733.81;1676498;85;21238;-66
2021/01/04 06:59:57;;;;;;;18.30;11.45;;;;;;;2.50;84.96;97730.06;1677477;85;21159;-66
2021/01/04 07:02:42;;;;;;;13.18;9.53;;;;;;;2.45;84.72;97738.52;1677759;85;21155;-66
2021/01/04 07:05:36;;;;;;;10.03;5.83;;;;;;;2.35;85.44;97742.94;1677624;85;21163;-66
2021/01/04 07:08:39;;;;;;;9.88;6.28;;;;;;;2.20;85.67;97739.24;1677650;85;21179;-67
2021/01/04 07:11:44;;;;;;;7.60;5.90;;;;;;;2.10;86.59;97743.31;1650244;87;21136;-67
2021/01/04 07:14:36;;;;;;;9.95;6.28;;;;;;;2.04;88.23;97739.38;1650518;87;21170;-66
2021/01/04 07:17:43;;;;;;;8.98;6.08;;;;;;;2.03;86.35;97734.34;1650093;87;21235;-65
2021/01/04 07:23:34;;;;;;;4.87;4.22;;;;;;;1.94;86.74;97743.89;1726657;82;20195;-66
2021/01/04 07:29:42;;;;;;;13.95;6.90;;;;;;;1.93;86.70;97747.36;1645246;86;21617;-64
2021/01/04 07:35:43;;;;;;;9.85;6.05;;;;;;;2.05;87.47;97743.59;1779668;79;23037;-66
2021/01/04 07:38:52;;;;;;;9.45;5.30;;;;;;;2.02;86.91;97736.56;1753232;81;21191;-66
2021/01/04 07:41:49;;;;;;;14.05;8.00;;;;;;;2.05;86.72;97735.91;1646879;85;21314;-66
2021/01/04 07:45:11;;;;;;;15.58;9.78;;;;;;;2.11;86.54;97730.39;1619620;87;21231;-67
2021/01/04 07:47:56;;;;;;;19.57;9.38;;;;;;;2.10;86.34;97733.06;1607605;88;21228;-64
2021/01/04 07:54:14;;;;;;;15.65;9.05;;;;;;;2.24;86.39;97725.32;1823606;77;23429;-64
2021/01/04 07:57:01;;;;;;;13.18;8.70;;;;;;;2.14;86.90;97722.50;1760289;81;21168;-64
2021/01/04 07:59:52;;;;;;;24.67;14.68;;;;;;;2.23;86.91;97723.22;1744385;82;21135;-65
2021/01/04 08:02:44;;;;;;;20.82;10.48;;;;;;;2.30;86.67;97723.64;1769756;81;21147;-63
2021/01/04 08:05:20;;;;;;;16.52;10.23;;;;;;;2.38;86.81;97715.00;1770000;81;21183;-62
2021/01/04 08:08:15;;;;;;;25.20;11.83;;;;;;;2.43;86.66;97707.85;1760589;81;21191;-65
2021/01/04 08:10:53;;;;;;;13.18;8.23;;;;;;;2.56;86.40;97702.31;1769901;81;21568;-66
2021/01/04 08:14:02;;;;;;;17.12;10.38;;;;;;;2.60;86.31;97711.90;1769718;81;21635;-62
2021/01/04 08:16:47;;;;;;;17.62;9.15;;;;;;;2.67;86.21;97720.38;1662137;84;21266;-65
2021/01/04 08:19:18;;;;;;;16.30;8.75;;;;;;;2.75;85.59;97704.48;1699862;84;21149;-63
2021/01/04 08:22:19;;;;;;;20.15;10.05;;;;;;;2.81;85.59;97698.94;1625699;87;21182;-65
2021/01/04 08:24:50;;;;;;;9.90;7.33;;;;;;;2.91;85.56;97690.19;1718731;82;21178;-64
2021/01/04 08:27:32;;;;;;;11.88;7.87;;;;;;;2.97;84.95;97684.64;1748181;81;21311;-67
2021/01/04 08:30:09;;;;;;;17.70;7.90;;;;;;;3.01;84.82;97680.49;1777555;81;21154;-67
2021/01/04 08:33:02;;;;;;;13.13;7.22;;;;;;;3.07;84.97;97681.84;1777245;81;21151;-66
2021/01/04 08:35:36;;;;;;;12.93;8.03;;;;;;;3.11;84.81;97675.58;1773108;81;21907;-66
2021/01/04 08:38:21;;;;;;;15.93;9.23;;;;;;;3.10;84.38;97674.75;1762126;81;21148;-65
2021/01/04 08:41:21;;;;;;;13.48;8.33;;;;;;;3.09;84.74;97682.54;1762049;81;21144;-66
2021/01/04 08:43:59;;;;;;;12.37;6.70;;;;;;;3.06;84.20;97696.41;1762127;81;21140;-66
2021/01/04 08:46:31;;;;;;;13.78;6.97;;;;;;;3.03;84.70;97692.77;1762002;80;21189;-67
2021/01/04 08:49:20;;;;;;;16.27;8.50;;;;;;;3.00;84.32;97697.25;1738829;81;21156;-67
2021/01/04 08:51:51;;;;;;;8.50;4.85;;;;;;;2.96;83.87;97695.36;1761844;80;21148;-66
2021/01/04 08:54:29;;;;;;;9.25;6.35;;;;;;;3.02;83.78;97691.58;1761958;81;21672;-67
2021/01/04 08:59:57;;;;;;;10.98;7.45;;;;;;;3.00;83.52;97675.45;1750888;81;21207;-73
2021/01/04 09:02:39;;;;;;;13.78;6.55;;;;;;;3.04;84.08;97663.61;1757299;81;21147;-70
2021/01/04 09:05:13;;;;;;;9.78;5.40;;;;;;;3.15;84.37;97663.69;1757050;82;21244;-68
2021/01/04 09:07:53;;;;;;;10.20;5.67;;;;;;;3.21;84.58;97663.75;1756603;81;21555;-62
2021/01/04 09:10:45;;;;;;;9.33;5.62;;;;;;;3.31;84.50;97659.63;1756885;82;21182;-64
2021/01/04 09:13:38;;;;;;;8.03;5.78;;;;;;;3.44;84.61;97648.88;1756756;80;21139;-64
2021/01/04 09:16:29;;;;;;;11.18;6.53;;;;;;;3.62;84.44;97641.17;1756837;80;21615;-65
2021/01/04 09:19:11;;;;;;;10.72;6.35;;;;;;;3.77;83.64;97636.23;1756791;82;21150;-64
2021/01/04 09:21:41;;;;;;;12.20;6.97;;;;;;;3.86;82.22;97637.34;1756270;80;21194;-65
2021/01/04 09:24:32;;;;;;;13.78;6.83;;;;;;;3.90;81.81;97635.37;1756856;82;21155;-64
2021/01/04 09:27:28;;;;;;;8.00;5.65;;;;;;;3.85;81.42;97637.47;1755700;81;21262;-65
2021/01/04 09:30:07;;;;;;;12.90;7.12;;;;;;;3.60;81.06;97643.04;1756727;82;21143;-64
2021/01/04 09:32:42;;;;;;;14.03;7.72;;;;;;;3.43;81.51;97629.72;1756766;80;21552;-63
2021/01/04 09:35:22;;;;;;;8.45;6.05;;;;;;;3.45;81.85;97626.14;1756938;80;21146;-64
2021/01/04 09:38:04;;;;;;;22.15;12.65;;;;;;;3.52;82.07;97622.22;1756452;80;21115;-66
2021/01/04 09:40:33;;;;;;;14.33;8.95;;;;;;;3.52;82.05;97631.66;1757032;82;21170;-62
2021/01/04 09:43:12;;;;;;;15.03;8.18;;;;;;;3.43;83.07;97636.96;1756839;81;21160;-65
2021/01/04 09:45:41;;;;;;;11.97;7.85;;;;;;;3.32;84.43;97630.47;1757093;80;21150;-64
2021/01/04 09:48:23;;;;;;;15.08;8.18;;;;;;;3.39;83.78;97622.70;1757195;81;21166;-65
2021/01/04 09:50:55;;;;;;;16.15;7.10;;;;;;;3.43;84.36;97613.86;1756381;81;21139;-64
2021/01/04 09:53:34;;;;;;;12.98;7.60;;;;;;;3.52;84.20;97614.52;1756959;80;21320;-64
2021/01/04 09:56:11;;;;;;;17.57;8.50;;;;;;;3.61;84.10;97613.05;1756724;80;21718;-65
2021/01/04 09:58:41;;;;;;;16.15;8.00;;;;;;;3.55;83.97;97606.59;1756852;81;21162;-65
2021/01/04 10:01:14;;;;;;;16.45;9.20;;;;;;;3.64;83.84;97597.42;1736048;81;21178;-65
2021/01/04 10:03:59;;;;;;;13.60;7.20;;;;;;;3.69;83.89;97591.51;1743827;81;21124;-66
2021/01/04 10:06:31;;;;;;;11.65;6.90;;;;;;;3.72;84.17;97587.43;1735468;81;21190;-66
2021/01/04 10:09:00;;;;;;;15.35;7.45;;;;;;;3.79;83.84;97585.59;1729311;81;21138;-65
2021/01/04 10:11:31;;;;;;;13.35;8.35;;;;;;;3.89;83.86;97581.09;1727881;82;21239;-65
2021/01/04 10:14:13;;;;;;;14.87;8.90;;;;;;;3.88;83.96;97579.45;1723631;82;21158;-65
2021/01/04 10:16:46;;;;;;;20.05;6.90;;;;;;;3.86;83.98;97576.98;1699766;84;21233;-65
2021/01/04 10:19:26;;;;;;;10.88;6.75;;;;;;;3.96;83.09;97572.01;1730417;82;21186;-70
2021/01/04 10:22:15;;;;;;;11.25;5.97;;;;;;;3.98;82.86;97568.84;1721083;82;21159;-66
2021/01/04 10:25:00;;;;;;;10.08;6.53;;;;;;;4.07;83.11;97566.44;1724189;82;21222;-65
2021/01/04 10:27:31;;;;;;;12.43;6.83;;;;;;;4.15;82.53;97559.45;1725134;82;21167;-66
2021/01/04 10:30:05;;;;;;;9.63;6.55;;;;;;;4.20;82.46;97554.80;1722225;82;21179;-65
2021/01/04 10:32:39;;;;;;;10.15;7.00;;;;;;;4.28;82.61;97550.71;1743997;81;21603;-65
2021/01/04 10:35:29;;;;;;;13.45;8.65;;;;;;;4.29;82.48;97544.65;1711722;83;21163;-66
2021/01/04 10:38:11;;;;;;;12.15;6.65;;;;;;;4.27;82.46;97543.13;1659147;86;21209;-65
2021/01/04 10:40:49;;;;;;;13.18;7.92;;;;;;;4.32;81.88;97538.94;1690804;84;21140;-65
2021/01/04 10:43:21;;;;;;;14.70;7.67;;;;;;;4.33;82.02;97527.70;1690519;84;21568;-65
2021/01/04 10:45:52;;;;;;;13.08;7.62;;;;;;;4.32;82.64;97528.16;1691274;84;21184;-65
2021/01/04 10:48:26;;;;;;;12.33;7.65;;;;;;;4.35;82.68;97527.96;1653378;85;21230;-66
2021/01/04 10:51:00;;;;;;;12.73;8.78;;;;;;;4.36;82.41;97521.86;1708826;83;21168;-65
2021/01/04 10:53:39;;;;;;;10.82;8.03;;;;;;;4.35;82.29;97520.71;1709132;83;21624;-65
2021/01/04 10:56:35;;;;;;;17.23;7.90;;;;;;;4.42;82.46;97520.13;1708423;83;21153;-64
2021/01/04 10:59:30;;;;;;;13.28;7.80;;;;;;;4.43;82.07;97511.95;1703310;83;21230;-65
2021/01/04 11:01:59;;;;;;;14.23;8.83;;;;;;;4.34;82.02;97505.75;1706885;82;21101;-65
2021/01/04 11:04:28;;;;;;;14.07;8.88;;;;;;;4.28;82.78;97487.73;1716454;83;21200;-65
2021/01/04 11:07:04;;;;;;;12.68;7.90;;;;;;;4.26;83.44;97481.91;1717472;83;21163;-65
2021/01/04 11:09:37;;;;;;;22.65;11.33;;;;;;;4.32;83.38;97484.47;1715054;82;21155;-64
2021/01/04 11:12:17;;;;;;;25.32;10.93;;;;;;;4.36;83.45;97475.59;1714419;82;21184;-65
2021/01/04 11:15:29;;;;;;;20.80;10.32;;;;;;;4.44;83.57;97480.16;1711867;83;21168;-65
2021/01/04 11:18:10;;;;;;;15.45;9.20;;;;;;;4.49;83.57;97475.02;1647644;86;21187;-66
2021/01/04 11:20:41;;;;;;;21.65;10.90;;;;;;;4.56;83.35;97454.80;1646168;87;21231;-65
2021/01/04 11:23:14;;;;;;;16.52;10.10;;;;;;;4.57;83.47;97467.55;1647811;86;21191;-66
2021/01/04 11:25:45;;;;;;;19.70;10.35;;;;;;;4.60;83.58;97465.20;1647701;86;21220;-65
2021/01/04 11:28:15;;;;;;;13.98;9.98;;;;;;;4.62;83.45;97447.91;1647366;87;21211;-65
2021/01/04 11:30:45;;;;;;;18.95;9.93;;;;;;;4.62;83.69;97438.91;1647371;87;21478;-66
2021/01/04 11:33:15;;;;;;;18.32;8.93;;;;;;;4.61;83.89;97447.55;1614014;87;21227;-65
2021/01/04 11:35:43;;;;;;;14.47;8.73;;;;;;;4.67;83.89;97438.88;1626828;88;21162;-65
2021/01/04 11:38:11;;;;;;;10.88;7.17;;;;;;;4.71;83.82;97428.70;1652714;86;21196;-65
2021/01/04 11:40:39;;;;;;;15.83;5.95;;;;;;;4.73;84.13;97432.00;1604423;88;21596;-65
2021/01/04 11:43:08;;;;;;;8.88;6.40;;;;;;;4.78;83.16;97427.32;1596859;89;21262;-65
2021/01/04 11:45:36;;;;;;;12.88;7.58;;;;;;;4.81;82.71;97417.72;1593307;89;21211;-66
2021/01/04 11:48:26;;;;;;;9.33;6.45;;;;;;;4.79;82.30;97413.96;1593473;90;21201;-65
2021/01/04 11:50:55;;;;;;;7.20;5.95;;;;;;;4.86;82.46;97416.43;1645064;86;21316;-65
2021/01/04 11:53:23;;;;;;;7.15;4.90;;;;;;;4.83;81.93;97401.21;1643710;87;21646;-65
2021/01/04 11:55:51;;;;;;;10.32;5.03;;;;;;;4.84;81.55;97405.42;1690411;84;21231;-64
2021/01/04 11:58:19;;;;;;;13.93;6.17;;;;;;;4.85;81.33;97409.64;1690100;84;21164;-65
2021/01/04 12:00:47;;;;;;;7.60;4.85;;;;;;;4.80;81.50;97401.46;1687608;84;21561;-66
2021/01/04 12:03:15;;;;;;;4.85;4.00;;;;;;;4.77;81.75;97404.28;1686750;84;21578;-66
2021/01/04 12:05:43;;;;;;;7.12;5.12;;;;;;;4.85;82.01;97404.95;1686705;84;21514;-66
2021/01/04 12:08:11;;;;;;;9.50;4.97;;;;;;;4.93;82.08;97399.56;1687266;84;21381;-64
2021/01/04 12:10:39;;;;;;;7.33;5.28;;;;;;;5.03;82.14;97393.20;1686874;84;21435;-66
2021/01/04 12:13:09;;;;;;;9.68;5.60;;;;;;;5.11;82.29;97389.09;1686441;85;21160;-66
2021/01/04 12:15:38;;;;;;;7.15;5.20;;;;;;;5.11;82.01;97394.23;1686239;84;21184;-66
2021/01/04 12:18:07;;;;;;;7.53;4.25;;;;;;;5.12;82.14;97388.16;1703336;84;21207;-66
2021/01/04 12:20:35;;;;;;;11.63;4.90;;;;;;;5.24;82.12;97382.02;1704295;83;21215;-66
2021/01/04 12:23:05;;;;;;;9.63;5.12;;;;;;;5.35;82.05;97380.33;1717734;82;21144;-66
2021/01/04 12:25:33;;;;;;;9.03;4.70;;;;;;;5.41;81.73;97373.41;1696039;82;21171;-66
2021/01/04 12:28:02;;;;;;;6.97;5.20;;;;;;;5.50;81.83;97373.46;1671326;84;21171;-64
2021/01/04 12:30:33;;;;;;;7.50;5.03;;;;;;;5.61;81.60;97375.14;1664239;84;21204;-66
2021/01/04 12:33:05;;;;;;;7.58;5.70;;;;;;;5.66;80.99;97378.99;1650142;86;21186;-66
2021/01/04 12:35:44;;;;;;;11.80;6.10;;;;;;;5.69;80.87;97374.05;1644831;86;21714;-66
2021/01/04 12:38:13;;;;;;;9.55;5.75;;;;;;;5.62;82.22;97374.21;1700176;84;21144;-65
2021/01/04 12:40:43;;;;;;;7.97;5.00;;;;;;;5.67;81.91;97369.04;1700213;84;21601;-66
2021/01/04 12:43:13;;;;;;;11.33;7.20;;;;;;;5.76;81.70;97363.57;1700187;84;21562;-64
2021/01/04 12:45:45;;;;;;;12.75;8.23;;;;;;;5.77;81.12;97364.39;1700004;84;21617;-64
2021/01/04 12:48:13;;;;;;;16.27;9.33;;;;;;;5.76;81.69;97366.15;1700149;84;21152;-63
2021/01/04 12:50:41;;;;;;;10.50;7.70;;;;;;;5.42;83.19;97373.73;1699861;84;21156;-63
2021/01/04 12:53:12;;;;;;;12.35;7.30;;;;;;;5.55;81.92;97361.03;1691800;83;21600;-65
2021/01/04 12:55:42;;;;;;;10.08;7.97;;;;;;;5.60;81.90;97354.22;1688525;82;21640;-65
2021/01/04 12:58:13;;;;;;;10.68;7.03;;;;;;;5.62;81.60;97345.41;1700334;84;21128;-65
2021/01/04 13:00:45;;;;;;;11.03;5.92;;;;;;;5.61;81.55;97342.48;1684779;84;21167;-65
2021/01/04 13:03:14;;;;;;;14.23;7.45;;;;;;;5.57;81.60;97333.37;1691369;84;21230;-65
2021/01/04 13:05:42;;;;;;;10.28;6.83;;;;;;;5.60;81.79;97332.33;1677877;85;21230;-66
2021/01/04 13:08:10;;;;;;;14.58;7.15;;;;;;;5.55;81.97;97337.03;1693276;84;21196;-65
2021/01/04 13:10:38;;;;;;;13.03;7.55;;;;;;;5.49;82.41;97325.93;1691967;84;21184;-65
2021/01/04 13:13:06;;;;;;;12.75;6.62;;;;;;;5.45;82.80;97315.53;1677885;84;21167;-65
2021/01/04 13:15:34;;;;;;;11.78;6.45;;;;;;;5.44;82.81;97317.33;1677580;84;21191;-65
2021/01/04 13:18:04;;;;;;;12.13;6.50;;;;;;;5.44;82.80;97313.46;1677805;84;21624;-65
2021/01/04 13:20:32;;;;;;;63.13;26.57;;;;;;;5.45;82.72;97308.63;1679903;84;21195;-66
2021/01/04 13:23:00;;;;;;;43.13;22.02;;;;;;;5.46;83.15;97300.44;1682248;84;21596;-66
2021/01/04 13:25:28;;;;;;;15.10;7.80;;;;;;;5.48;83.45;97293.42;1686995;84;21227;-66
2021/01/04 13:27:58;;;;;;;18.37;8.20;;;;;;;5.43;83.72;97292.51;1700289;84;21708;-66
2021/01/04 13:30:26;;;;;;;40.48;21.52;;;;;;;5.42;83.84;97287.47;1682485;84;21144;-65
2021/01/04 13:32:54;;;;;;;26.15;14.40;;;;;;;5.42;83.94;97278.46;1676154;84;21130;-66
2021/01/04 13:35:22;;;;;;;17.32;9.85;;;;;;;5.43;84.24;97277.06;1700427;84;21175;-66
2021/01/04 13:37:50;;;;;;;15.08;7.20;;;;;;;5.42;84.59;97279.28;1694530;84;21168;-66